createdAt,value
2017-12-10T00:00:14.786Z,7.87
2017-12-10T00:02:42.997Z,3.17
2017-12-10T00:05:10.478Z,15.50
2017-12-10T00:07:37.935Z,14.20
2017-12-10T00:10:05.384Z,13.67
2017-12-10T00:12:32.864Z,13.23
2017-12-10T00:15:00.309Z,7.20
2017-12-10T00:17:27.769Z,8.83
2017-12-10T00:19:55.246Z,19.00
2017-12-10T00:22:22.697Z,11.30
2017-12-10T00:24:50.183Z,8.10
2017-12-10T00:27:18.396Z,10.67
2017-12-10T00:29:45.897Z,9.57
2017-12-10T00:32:13.342Z,10.43
2017-12-10T00:34:40.817Z,14.70
2017-12-10T00:37:08.290Z,18.03
2017-12-10T00:39:36.533Z,15.93
2017-12-10T00:42:04.790Z,11.17
2017-12-10T00:44:33.168Z,10.50
2017-12-10T00:47:00.611Z,12.17
2017-12-10T00:49:28.089Z,14.33
2017-12-10T00:51:55.548Z,10.07
2017-12-10T00:54:23.054Z,9.63
2017-12-10T00:56:51.293Z,16.07
2017-12-10T00:59:18.747Z,13.13
2017-12-10T01:01:46.228Z,14.50
2017-12-10T01:04:13.681Z,13.50
2017-12-10T01:06:41.196Z,9.40
2017-12-10T01:09:08.649Z,16.90
2017-12-10T01:11:36.093Z,8.17
2017-12-10T01:14:04.525Z,11.00
2017-12-10T01:16:33.669Z,15.13
2017-12-10T01:19:01.893Z,9.13
2017-12-10T01:21:29.366Z,18.30
2017-12-10T01:23:56.825Z,22.83
2017-12-10T01:26:24.305Z,22.63
2017-12-10T01:28:52.534Z,22.00
2017-12-10T01:31:20.017Z,16.20
2017-12-10T01:33:47.469Z,21.67
2017-12-10T01:36:14.958Z,17.83
2017-12-10T01:38:43.205Z,18.67
2017-12-10T01:41:10.680Z,10.30
2017-12-10T01:43:38.135Z,14.33
2017-12-10T01:46:05.616Z,14.20
2017-12-10T01:48:34.757Z,18.90
2017-12-10T01:51:02.300Z,18.80
2017-12-10T01:53:29.760Z,15.43
2017-12-10T01:55:57.238Z,17.23
2017-12-10T01:58:24.692Z,26.13
2017-12-10T02:00:52.161Z,16.83
2017-12-10T02:03:19.621Z,18.00
2017-12-10T02:05:47.119Z,16.73
2017-12-10T02:08:15.361Z,19.17
2017-12-10T02:10:42.822Z,18.30
2017-12-10T02:13:10.294Z,24.53
2017-12-10T02:15:37.774Z,18.80
2017-12-10T02:18:06.026Z,20.70
2017-12-10T02:20:33.470Z,9.97
2017-12-10T02:23:00.935Z,23.10
2017-12-10T02:25:28.423Z,14.87
2017-12-10T02:27:56.645Z,15.00
2017-12-10T02:30:24.128Z,18.40
2017-12-10T02:32:51.592Z,15.20
2017-12-10T02:35:19.098Z,21.53
2017-12-10T02:37:46.564Z,15.00
2017-12-10T02:40:14.045Z,15.07
2017-12-10T02:42:41.525Z,13.07
2017-12-10T02:45:08.965Z,7.97
2017-12-10T02:47:36.457Z,10.93
2017-12-10T02:50:05.602Z,16.97
2017-12-10T02:52:33.062Z,16.83
2017-12-10T02:55:00.537Z,19.20
2017-12-10T02:57:28.023Z,20.90
2017-12-10T02:59:55.489Z,19.60
2017-12-10T03:02:23.740Z,17.53
2017-12-10T03:04:51.193Z,21.90
2017-12-10T03:07:18.661Z,18.37
2017-12-10T03:09:46.131Z,15.47
2017-12-10T03:12:13.593Z,20.70
2017-12-10T03:14:41.082Z,21.70
2017-12-10T03:17:08.539Z,28.70
2017-12-10T03:19:36.946Z,19.92
2017-12-10T03:22:04.417Z,15.53
2017-12-10T03:24:31.894Z,29.00
2017-12-10T03:26:59.381Z,10.40
2017-12-10T03:29:27.613Z,13.40
2017-12-10T03:31:55.088Z,22.50
2017-12-10T03:34:22.546Z,15.93
2017-12-10T03:36:50.030Z,19.17
2017-12-10T03:39:18.258Z,24.50
2017-12-10T03:41:45.716Z,21.43
2017-12-10T03:44:13.197Z,31.03
2017-12-10T03:46:40.671Z,26.07
2017-12-10T03:49:08.890Z,30.97
2017-12-10T03:51:37.605Z,19.23
2017-12-10T03:54:05.062Z,24.07
2017-12-10T03:56:32.606Z,17.20
2017-12-10T03:59:00.058Z,21.13
2017-12-10T04:01:27.563Z,19.83
2017-12-10T04:03:55.022Z,21.60
2017-12-10T04:06:22.469Z,22.47
2017-12-10T04:08:49.941Z,25.67
2017-12-10T04:11:17.404Z,25.60
2017-12-10T04:13:45.646Z,21.20
2017-12-10T04:16:13.102Z,18.17
2017-12-10T04:18:40.605Z,19.57
2017-12-10T04:21:08.073Z,24.20
2017-12-10T04:26:09.571Z,22.73
2017-12-10T04:28:37.889Z,22.92
2017-12-10T04:31:05.352Z,22.53
2017-12-10T04:33:32.821Z,24.23
2017-12-10T04:36:01.033Z,30.43
2017-12-10T04:38:28.525Z,28.27
2017-12-10T04:40:55.988Z,26.60
2017-12-10T04:43:23.458Z,21.47
2017-12-10T04:45:50.937Z,18.37
2017-12-10T04:48:18.420Z,21.67
2017-12-10T04:50:45.873Z,22.30
2017-12-10T04:53:13.345Z,24.47
2017-12-10T04:55:41.997Z,19.47
2017-12-10T04:58:09.490Z,12.47
2017-12-10T05:00:36.949Z,24.53
2017-12-10T05:03:04.406Z,15.40
2017-12-10T05:05:31.903Z,18.47
2017-12-10T05:07:59.361Z,15.27
2017-12-10T05:10:26.829Z,13.77
2017-12-10T05:12:54.285Z,18.97
2017-12-10T05:15:21.759Z,14.40
2017-12-10T05:17:49.998Z,20.53
2017-12-10T05:20:17.491Z,25.40
2017-12-10T05:22:45.705Z,15.70
2017-12-10T05:25:13.185Z,20.13
2017-12-10T05:27:40.669Z,18.23
2017-12-10T05:30:09.510Z,14.55
2017-12-10T05:32:36.965Z,17.37
2017-12-10T05:35:04.445Z,13.30
2017-12-10T05:37:32.006Z,16.00
2017-12-10T05:39:59.465Z,22.20
2017-12-10T05:42:26.954Z,18.47
2017-12-10T05:44:54.401Z,19.00
2017-12-10T05:47:21.859Z,8.80
2017-12-10T05:49:49.330Z,13.33
2017-12-10T05:52:16.821Z,15.43
2017-12-10T05:54:44.297Z,16.40
2017-12-10T05:57:11.754Z,13.83
2017-12-10T05:59:39.215Z,15.60
2017-12-10T06:02:06.677Z,15.57
2017-12-10T06:04:34.129Z,17.00
2017-12-10T06:07:01.602Z,16.10
2017-12-10T06:09:29.058Z,24.27
2017-12-10T06:11:56.533Z,16.23
2017-12-10T06:14:23.990Z,11.13
2017-12-10T06:16:51.469Z,13.40
2017-12-10T06:19:18.942Z,9.80
2017-12-10T06:21:47.187Z,23.30
2017-12-10T06:24:14.642Z,14.63
2017-12-10T06:26:42.881Z,16.30
2017-12-10T06:29:10.330Z,13.83
2017-12-10T06:31:37.805Z,16.83
2017-12-10T06:34:05.250Z,13.70
2017-12-10T06:36:32.718Z,14.97
2017-12-10T06:39:00.180Z,12.27
2017-12-10T06:41:27.649Z,12.80
2017-12-10T06:43:55.126Z,20.90
2017-12-10T06:46:22.606Z,22.03
2017-12-10T06:48:50.054Z,14.80
2017-12-10T06:51:17.537Z,12.00
2017-12-10T06:53:45.781Z,18.40
2017-12-10T06:56:14.085Z,12.93
2017-12-10T06:58:42.335Z,16.30
2017-12-10T07:01:10.049Z,16.70
2017-12-10T07:03:37.497Z,15.73
2017-12-10T07:06:04.978Z,13.07
2017-12-10T07:08:32.459Z,16.83
2017-12-10T07:10:59.906Z,17.97
2017-12-10T07:13:27.394Z,18.87
2017-12-10T07:15:54.866Z,17.30
2017-12-10T07:18:22.326Z,22.13
2017-12-10T07:20:49.809Z,9.67
2017-12-10T07:23:17.257Z,9.60
2017-12-10T07:25:44.710Z,16.57
2017-12-10T07:28:12.205Z,13.90
2017-12-10T07:30:40.568Z,15.87
2017-12-10T07:33:08.284Z,14.30
2017-12-10T07:35:36.057Z,15.27
2017-12-10T07:38:03.875Z,8.83
2017-12-10T07:40:31.632Z,16.13
2017-12-10T07:42:59.598Z,12.03
2017-12-10T07:45:28.425Z,16.53
2017-12-10T07:47:56.150Z,7.40
2017-12-10T07:50:23.666Z,11.90
2017-12-10T07:52:51.424Z,3.57
2017-12-10T07:55:19.108Z,9.10
2017-12-10T07:57:46.727Z,13.60
2017-12-10T08:00:14.560Z,12.60
2017-12-10T08:02:42.984Z,5.10
2017-12-10T08:05:11.326Z,13.70
2017-12-10T08:07:39.075Z,12.43
2017-12-10T08:10:06.915Z,5.47
2017-12-10T08:12:34.700Z,6.80
2017-12-10T08:15:03.162Z,4.22
2017-12-10T08:17:30.968Z,7.40
2017-12-10T08:19:58.797Z,11.20
2017-12-10T08:22:26.554Z,4.77
2017-12-10T08:24:54.175Z,6.50
2017-12-10T08:27:21.962Z,15.03
2017-12-10T08:29:49.687Z,5.47
2017-12-10T08:32:18.198Z,7.37
2017-12-10T08:34:45.939Z,4.53
2017-12-10T08:37:13.768Z,6.03
2017-12-10T08:39:42.654Z,6.32
2017-12-10T08:42:10.363Z,6.87
2017-12-10T08:44:38.155Z,2.37
2017-12-10T08:47:05.953Z,2.60
2017-12-10T08:49:33.757Z,6.10
2017-12-10T08:52:01.667Z,2.33
2017-12-10T08:54:29.536Z,12.45
2017-12-10T08:56:57.281Z,3.30
2017-12-10T08:59:25.017Z,6.70
2017-12-10T09:01:53.785Z,14.97
2017-12-10T09:04:21.520Z,10.83
2017-12-10T09:06:49.388Z,6.37
2017-12-10T09:09:17.236Z,3.17
2017-12-10T09:11:45.019Z,1.90
2017-12-10T09:14:12.874Z,2.50
2017-12-10T09:16:40.682Z,5.83
2017-12-10T09:19:08.474Z,4.33
2017-12-10T09:21:36.212Z,6.30
2017-12-10T09:24:04.020Z,7.50
2017-12-10T09:26:31.889Z,2.70
2017-12-10T09:28:59.601Z,5.70
2017-12-10T09:31:27.455Z,4.93
2017-12-10T09:33:55.186Z,2.73
2017-12-10T09:36:23.022Z,1.63
2017-12-10T09:38:51.511Z,24.37
2017-12-10T09:41:20.022Z,5.50
2017-12-10T09:43:48.036Z,2.67
2017-12-10T09:46:15.940Z,11.53
2017-12-10T09:48:43.792Z,6.63
2017-12-10T09:51:11.619Z,5.63
2017-12-10T09:53:39.490Z,6.80
2017-12-10T09:56:07.346Z,5.00
2017-12-10T09:58:35.207Z,8.10
2017-12-10T10:01:02.897Z,5.40
2017-12-10T10:03:30.585Z,5.53
2017-12-10T10:05:59.273Z,5.53
2017-12-10T10:08:27.769Z,8.33
2017-12-10T10:10:56.223Z,6.40
2017-12-10T10:13:23.982Z,5.57
2017-12-10T10:15:51.870Z,3.63
2017-12-10T10:18:20.435Z,8.37
2017-12-10T10:20:48.393Z,3.07
2017-12-10T10:23:16.930Z,6.20
2017-12-10T10:25:44.636Z,5.80
2017-12-10T10:28:12.327Z,5.43
2017-12-10T10:30:41.017Z,6.30
2017-12-10T10:33:08.691Z,7.90
2017-12-10T10:35:37.116Z,1.57
2017-12-10T10:38:04.788Z,4.53
2017-12-10T10:40:32.454Z,3.47
2017-12-10T10:43:00.243Z,2.03
2017-12-10T10:45:28.029Z,5.00
2017-12-10T10:47:56.531Z,2.60
2017-12-10T10:50:24.385Z,7.73
2017-12-10T10:52:52.910Z,13.53
2017-12-10T10:55:20.615Z,3.67
2017-12-10T10:57:48.446Z,7.93
2017-12-10T11:00:16.188Z,6.67
2017-12-10T11:02:44.697Z,5.12
2017-12-10T11:05:12.628Z,4.40
2017-12-10T11:07:40.694Z,5.40
2017-12-10T11:10:08.530Z,3.00
2017-12-10T11:12:36.265Z,7.60
2017-12-10T11:15:04.315Z,7.47
2017-12-10T11:17:32.326Z,4.13
2017-12-10T11:20:00.456Z,14.83
2017-12-10T11:22:28.235Z,9.03
2017-12-10T11:24:56.072Z,18.47
2017-12-10T11:27:24.066Z,9.50
2017-12-10T11:29:51.932Z,7.70
2017-12-10T11:32:19.863Z,5.17
2017-12-10T11:34:48.503Z,17.07
2017-12-10T11:37:16.296Z,6.60
2017-12-10T11:39:44.377Z,9.17
2017-12-10T11:42:12.288Z,7.97
2017-12-10T11:44:40.109Z,13.23
2017-12-10T11:47:08.118Z,10.70
2017-12-10T11:49:35.866Z,6.23
2017-12-10T11:52:03.783Z,3.77
2017-12-10T11:54:31.320Z,12.00
2017-12-10T11:56:59.049Z,3.73
2017-12-10T11:59:27.154Z,4.80
2017-12-10T12:01:54.894Z,9.47
2017-12-10T12:04:23.416Z,4.27
2017-12-10T12:06:52.031Z,7.23
2017-12-10T12:09:20.025Z,8.57
2017-12-10T12:11:48.109Z,5.20
2017-12-10T12:14:16.119Z,7.25
2017-12-10T12:16:44.054Z,3.83
2017-12-10T12:19:11.992Z,8.47
2017-12-10T12:21:40.078Z,3.70
2017-12-10T12:24:07.821Z,4.07
2017-12-10T12:26:36.768Z,3.30
2017-12-10T12:29:04.566Z,7.97
2017-12-10T12:31:32.245Z,2.17
2017-12-10T12:34:00.044Z,3.07
2017-12-10T12:36:27.560Z,4.03
2017-12-10T12:38:55.327Z,1.80
2017-12-10T12:41:23.094Z,2.03
2017-12-10T12:43:50.782Z,4.23
2017-12-10T12:46:18.499Z,5.10
2017-12-10T12:48:46.468Z,3.13
2017-12-10T12:51:14.119Z,1.40
2017-12-10T12:53:42.028Z,9.20
2017-12-10T12:56:09.760Z,2.67
2017-12-10T12:58:37.575Z,1.90
2017-12-10T13:01:05.256Z,3.37
2017-12-10T13:03:32.939Z,1.40
2017-12-10T13:06:00.719Z,5.20
2017-12-10T13:08:28.649Z,1.20
2017-12-10T13:10:56.454Z,2.67
2017-12-10T13:13:24.174Z,1.80
2017-12-10T13:15:52.615Z,1.60
2017-12-10T13:18:20.463Z,2.10
2017-12-10T13:20:48.158Z,1.20
2017-12-10T13:23:15.936Z,2.40
2017-12-10T13:25:43.902Z,1.80
2017-12-10T13:28:11.731Z,2.10
2017-12-10T13:30:39.858Z,2.03
2017-12-10T13:33:07.745Z,1.50
2017-12-10T13:35:35.670Z,2.70
2017-12-10T13:38:03.432Z,1.57
2017-12-10T13:40:31.202Z,2.50
2017-12-10T13:42:59.979Z,1.27
2017-12-10T13:45:27.687Z,1.13
2017-12-10T13:47:56.341Z,2.60
2017-12-10T13:50:24.436Z,1.50
2017-12-10T13:52:52.807Z,1.43
2017-12-10T13:55:20.842Z,1.50
2017-12-10T13:57:50.322Z,2.33
2017-12-10T14:00:18.224Z,1.73
2017-12-10T14:02:45.914Z,2.50
2017-12-10T14:05:13.827Z,1.60
2017-12-10T14:07:42.572Z,1.83
2017-12-10T14:10:11.013Z,2.23
2017-12-10T14:12:38.774Z,2.97
2017-12-10T14:15:06.489Z,3.30
2017-12-10T14:17:35.019Z,2.60
2017-12-10T14:20:03.106Z,3.17
2017-12-10T14:22:31.830Z,7.80
2017-12-10T14:24:59.874Z,2.90
2017-12-10T14:27:27.643Z,2.67
2017-12-10T14:29:56.347Z,1.60
2017-12-10T14:32:24.019Z,2.60
2017-12-10T14:34:52.568Z,2.30
2017-12-10T14:37:20.383Z,2.10
2017-12-10T14:39:48.695Z,2.08
2017-12-10T14:42:16.489Z,3.10
2017-12-10T14:44:46.194Z,1.63
2017-12-10T14:47:14.108Z,3.33
2017-12-10T14:49:41.779Z,2.23
2017-12-10T14:52:09.382Z,3.50
2017-12-10T14:54:37.155Z,2.70
2017-12-10T14:57:04.817Z,3.97
2017-12-10T14:59:32.374Z,2.80
2017-12-10T15:02:00.258Z,3.20
2017-12-10T15:04:27.994Z,1.07
2017-12-10T15:06:55.781Z,5.20
2017-12-10T15:09:23.454Z,2.40
2017-12-10T15:11:51.248Z,4.60
2017-12-10T15:14:20.429Z,7.22
2017-12-10T15:16:49.033Z,4.07
2017-12-10T15:19:16.863Z,3.20
2017-12-10T15:21:44.993Z,8.03
2017-12-10T15:24:13.517Z,4.13
2017-12-10T15:26:41.414Z,7.40
2017-12-10T15:29:09.449Z,9.80
2017-12-10T15:31:38.093Z,13.93
2017-12-10T15:34:05.907Z,3.37
2017-12-10T15:36:33.816Z,3.37
2017-12-10T15:39:01.765Z,8.43
2017-12-10T15:41:30.489Z,11.93
2017-12-10T15:43:58.428Z,6.30
2017-12-10T15:46:26.522Z,10.03
2017-12-10T15:48:54.645Z,28.70
2017-12-10T15:51:22.851Z,11.50
2017-12-10T15:53:51.395Z,14.97
2017-12-10T15:56:20.309Z,7.82
2017-12-10T15:58:48.209Z,4.93
2017-12-10T16:01:15.991Z,12.17
2017-12-10T16:03:44.102Z,7.73
2017-12-10T16:06:11.915Z,9.10
2017-12-10T16:08:39.701Z,16.23
2017-12-10T16:11:07.378Z,31.50
2017-12-10T16:13:35.165Z,28.03
2017-12-10T16:16:03.445Z,12.63
2017-12-10T16:18:31.772Z,12.60
2017-12-10T16:21:00.004Z,22.73
2017-12-10T16:23:28.160Z,10.63
2017-12-10T16:25:56.007Z,27.80
2017-12-10T16:28:24.089Z,20.93
2017-12-10T16:30:52.926Z,10.97
2017-12-10T16:33:22.070Z,20.23
2017-12-10T16:35:51.592Z,14.40
2017-12-10T16:38:19.606Z,29.80
2017-12-10T16:40:47.763Z,13.83
2017-12-10T16:43:15.834Z,52.10
2017-12-10T16:45:44.690Z,33.83
2017-12-10T16:48:12.766Z,21.40
2017-12-10T16:50:40.930Z,34.20
2017-12-10T16:53:08.955Z,28.23
2017-12-10T16:55:37.184Z,30.37
2017-12-10T16:58:05.045Z,33.83
2017-12-10T17:00:33.173Z,41.73
2017-12-10T17:03:01.264Z,22.13
2017-12-10T17:05:29.302Z,27.37
2017-12-10T17:07:58.112Z,37.30
2017-12-10T17:10:27.157Z,37.37
2017-12-10T17:12:56.066Z,26.33
2017-12-10T17:15:25.844Z,31.37
2017-12-10T17:17:54.021Z,12.80
2017-12-10T17:20:22.367Z,29.13
2017-12-10T17:22:50.435Z,12.67
2017-12-10T17:25:18.522Z,20.50
2017-12-10T17:27:46.753Z,27.27
2017-12-10T17:30:16.408Z,7.53
2017-12-10T17:32:44.906Z,31.93
2017-12-10T17:35:13.167Z,21.00
2017-12-10T17:37:41.251Z,35.95
2017-12-10T17:40:09.225Z,22.03
2017-12-10T17:42:37.907Z,25.20
2017-12-10T17:45:05.961Z,9.40
2017-12-10T17:47:38.715Z,27.17
2017-12-10T17:50:06.933Z,26.43
2017-12-10T17:52:36.930Z,39.67
2017-12-10T17:55:08.418Z,28.50
2017-12-10T17:57:36.538Z,14.20
2017-12-10T18:00:04.773Z,18.83
2017-12-10T18:02:34.625Z,12.50
2017-12-10T18:05:03.590Z,32.53
2017-12-10T18:07:31.578Z,19.53
2017-12-10T18:09:59.555Z,29.70
2017-12-10T18:12:29.153Z,33.27
2017-12-10T18:14:58.444Z,19.43
2017-12-10T18:17:30.143Z,19.03
2017-12-10T18:19:58.147Z,27.93
2017-12-10T18:22:26.247Z,35.50
2017-12-10T18:24:54.377Z,19.40
2017-12-10T18:27:23.539Z,32.43
2017-12-10T18:29:52.792Z,22.87
2017-12-10T18:32:22.358Z,37.80
2017-12-10T18:34:50.477Z,8.90
2017-12-10T18:37:18.656Z,20.70
2017-12-10T18:39:47.609Z,3.00
2017-12-10T18:42:15.649Z,15.53
2017-12-10T18:44:43.849Z,4.10
2017-12-10T18:47:14.146Z,4.13
2017-12-10T18:49:42.484Z,12.33
2017-12-10T18:52:10.564Z,8.33
2017-12-10T18:54:39.236Z,2.83
2017-12-10T18:57:07.472Z,2.07
2017-12-10T18:59:35.515Z,2.03
2017-12-10T19:02:04.574Z,1.87
2017-12-10T19:04:33.402Z,2.60
2017-12-10T19:07:01.405Z,2.47
2017-12-10T19:09:30.018Z,2.00
2017-12-10T19:11:58.963Z,1.53
2017-12-10T19:14:27.100Z,1.53
2017-12-10T19:16:55.192Z,2.80
2017-12-10T19:19:23.147Z,4.53
2017-12-10T19:21:51.222Z,1.77
2017-12-10T19:24:19.286Z,1.70
2017-12-10T19:26:47.601Z,1.80
2017-12-10T19:29:18.919Z,1.53
2017-12-10T19:31:46.836Z,2.20
2017-12-10T19:34:14.559Z,2.00
2017-12-10T19:36:42.383Z,1.57
2017-12-10T19:39:09.990Z,2.93
2017-12-10T19:41:37.823Z,2.40
2017-12-10T19:44:05.603Z,1.80
2017-12-10T19:46:34.429Z,5.43
2017-12-10T19:49:02.128Z,1.60
2017-12-10T19:51:29.822Z,2.30
2017-12-10T19:53:58.548Z,3.07
2017-12-10T19:56:26.369Z,2.20
2017-12-10T19:58:54.998Z,2.47
2017-12-10T20:01:22.750Z,2.17
2017-12-10T20:03:50.778Z,1.67
2017-12-10T20:06:18.825Z,2.03
2017-12-10T20:08:46.464Z,1.40
2017-12-10T20:11:14.961Z,2.23
2017-12-10T20:13:43.248Z,1.80
2017-12-10T20:16:11.787Z,2.93
2017-12-10T20:18:39.539Z,6.73
2017-12-10T20:21:07.507Z,2.20
2017-12-10T20:23:35.262Z,5.13
2017-12-10T20:26:03.335Z,1.83
2017-12-10T20:28:31.333Z,3.30
2017-12-10T20:30:59.938Z,2.35
2017-12-10T20:33:27.677Z,9.20
2017-12-10T20:35:57.114Z,2.17
2017-12-10T20:38:24.931Z,2.30
2017-12-10T20:40:52.691Z,2.70
2017-12-10T20:43:21.408Z,2.03
2017-12-10T20:45:49.216Z,3.63
2017-12-10T20:48:17.055Z,2.23
2017-12-10T20:50:44.757Z,2.40
2017-12-10T20:53:12.387Z,4.43
2017-12-10T20:55:39.858Z,21.67
2017-12-10T20:58:07.317Z,5.53
2017-12-10T21:00:34.794Z,4.43
2017-12-10T21:03:02.245Z,6.83
2017-12-10T21:05:30.261Z,2.92
2017-12-10T21:07:57.709Z,8.97
2017-12-10T21:10:25.949Z,7.40
2017-12-10T21:12:53.397Z,15.27
2017-12-10T21:15:20.858Z,11.73
2017-12-10T21:17:48.325Z,7.37
2017-12-10T21:20:15.786Z,14.67
2017-12-10T21:22:43.253Z,9.87
2017-12-10T21:25:10.757Z,7.00
2017-12-10T21:27:38.249Z,10.47
2017-12-10T21:30:05.701Z,6.47
2017-12-10T21:32:33.180Z,11.17
2017-12-10T21:35:00.761Z,5.12
2017-12-10T21:37:28.978Z,3.63
2017-12-10T21:39:56.456Z,6.50
2017-12-10T21:42:23.930Z,3.43
2017-12-10T21:44:51.381Z,3.67
2017-12-10T21:47:18.856Z,4.73
2017-12-10T21:49:46.296Z,4.97
2017-12-10T21:52:13.772Z,3.60
2017-12-10T21:54:41.225Z,5.17
2017-12-10T21:57:08.697Z,6.20
2017-12-10T21:59:36.929Z,5.90
2017-12-10T22:02:04.386Z,4.60
2017-12-10T22:04:31.858Z,5.00
2017-12-10T22:06:59.325Z,7.17
2017-12-10T22:09:26.786Z,3.80
2017-12-10T22:11:54.236Z,8.60
2017-12-10T22:14:21.713Z,7.80
2017-12-10T22:16:49.189Z,12.50
2017-12-10T22:19:17.410Z,10.10
2017-12-10T22:21:44.877Z,5.83
2017-12-10T22:24:12.341Z,6.80
2017-12-10T22:26:39.846Z,7.33
2017-12-10T22:29:07.330Z,5.07
2017-12-10T22:31:34.797Z,10.23
2017-12-10T22:34:02.246Z,5.57
2017-12-10T22:36:29.714Z,6.47
2017-12-10T22:38:57.177Z,8.10
2017-12-10T22:41:24.657Z,8.43
2017-12-10T22:43:52.150Z,5.23
2017-12-10T22:46:20.367Z,5.07
2017-12-10T22:48:47.832Z,9.60
2017-12-10T22:51:15.286Z,7.40
2017-12-10T22:53:42.759Z,11.13
2017-12-10T22:56:10.257Z,11.17
2017-12-10T22:58:38.470Z,10.93
2017-12-10T23:01:05.931Z,5.83
2017-12-10T23:03:33.397Z,8.93
2017-12-10T23:06:00.870Z,10.90
2017-12-10T23:08:28.337Z,9.80
2017-12-10T23:10:55.782Z,9.43
2017-12-10T23:13:35.074Z,7.73
2017-12-10T23:16:02.526Z,10.70
2017-12-10T23:18:29.979Z,4.57
2017-12-10T23:20:57.462Z,8.77
2017-12-10T23:23:24.913Z,15.40
2017-12-10T23:25:52.361Z,9.90
2017-12-10T23:28:19.828Z,16.60
2017-12-10T23:30:47.305Z,8.97
2017-12-10T23:33:14.754Z,15.67
2017-12-10T23:35:42.210Z,10.47
2017-12-10T23:38:09.690Z,8.80
2017-12-10T23:40:37.136Z,10.33
2017-12-10T23:43:04.613Z,13.50
2017-12-10T23:45:32.829Z,10.45
2017-12-10T23:48:01.074Z,9.53
2017-12-10T23:50:28.530Z,12.17
2017-12-10T23:52:55.982Z,5.23
2017-12-10T23:55:23.471Z,8.60
2017-12-10T23:57:51.717Z,7.50
